Pagina principale
METAR-TAF:

METAR-TAF

Aeroporti :

Messina, Italia

latitudine: 38-12N, longitudine: 015-33E, altezza: 59 m

Osservazione

Il bollettino è stato emesso 48 minuti fa, alle 12:55 UTC
Vento 3 kt da nord
Temperature 24°C
Umidità 78%
Pressione 1008 hPa
Visibilità 10 km o più
Nubi sparse ad un'altezza di 3000 ft
Poco nuvoloso ad un'altezza di 3500 ft, Cumulonembo.

METAR: LICF 271255Z 36003KT 9999 SCT030 FEW035CB 24/20 Q1008 RMK BKN QUK 2 QUL 0 VIS MAR 16 KM MON CLD SCT NC VIS MIN 9999

Ora: 15:43 (13:43 UTC)


TAF: mancante

Osservazioni e previsioni meteorologiche di più di 4000 aeroporti (messaggi METAR e TAF).

Le stazioni disponibili sono rappresentate dai dischi gialli e rossi sulla carta.

Puntare il mouse per vedere il nome della stazione.

Clicca sopra per visualizzare le osservazioni e previsioni meteorologiche.

Per cambiare la mappa : fare clic sui pulsanti verdi con una croce nera per ingrandire, il pulsante verde con un trattino per diminuire, o sulla freccia verde per le mappe adiacenti.


METAR-TAF: